createdAt,value
2018-09-27T00:01:38.824Z,8.10
2018-09-27T00:04:08.293Z,7.96
2018-09-27T00:06:37.742Z,8.03
2018-09-27T00:09:07.855Z,7.98
2018-09-27T00:11:37.271Z,7.93
2018-09-27T00:14:06.665Z,7.92
2018-09-27T00:16:36.080Z,8.00
2018-09-27T00:19:05.483Z,7.90
2018-09-27T00:21:34.889Z,7.95
2018-09-27T00:24:04.322Z,7.96
2018-09-27T00:26:33.716Z,7.90
2018-09-27T00:29:03.152Z,7.89
2018-09-27T00:31:32.592Z,7.78
2018-09-27T00:34:01.993Z,7.74
2018-09-27T00:36:31.387Z,7.76
2018-09-27T00:39:00.839Z,7.70
2018-09-27T00:41:30.231Z,7.75
2018-09-27T00:43:59.670Z,7.68
2018-09-27T00:46:29.079Z,7.73
2018-09-27T00:48:58.473Z,7.71
2018-09-27T00:51:27.895Z,7.60
2018-09-27T00:53:57.411Z,7.64
2018-09-27T00:56:26.831Z,7.52
2018-09-27T00:58:56.231Z,7.62
2018-09-27T01:01:25.657Z,7.53
2018-09-27T01:03:55.059Z,7.45
2018-09-27T01:06:24.473Z,7.55
2018-09-27T01:08:54.343Z,7.58
2018-09-27T01:11:23.750Z,7.54
2018-09-27T01:13:53.140Z,7.55
2018-09-27T01:16:22.556Z,7.54
2018-09-27T01:18:51.984Z,7.42
2018-09-27T01:21:21.398Z,7.44
2018-09-27T01:23:50.812Z,7.28
2018-09-27T01:26:20.199Z,7.33
2018-09-27T01:28:49.605Z,7.33
2018-09-27T01:31:19.016Z,7.29
2018-09-27T01:33:48.455Z,7.19
2018-09-27T01:36:17.880Z,7.25
2018-09-27T01:38:47.275Z,7.23
2018-09-27T01:41:16.772Z,7.21
2018-09-27T01:43:46.278Z,7.18
2018-09-27T01:46:15.693Z,7.10
2018-09-27T01:48:45.168Z,7.17
2018-09-27T01:51:14.576Z,7.12
2018-09-27T01:53:44.028Z,7.13
2018-09-27T01:56:13.449Z,7.02
2018-09-27T01:58:42.903Z,7.06
2018-09-27T02:01:12.299Z,7.06
2018-09-27T02:03:41.719Z,6.94
2018-09-27T02:06:11.117Z,6.91
2018-09-27T02:08:40.519Z,6.94
2018-09-27T02:11:09.982Z,6.99
2018-09-27T02:13:39.405Z,7.00
2018-09-27T02:16:08.827Z,7.01
2018-09-27T02:18:38.215Z,6.99
2018-09-27T02:21:07.671Z,6.99
2018-09-27T02:23:37.109Z,6.96
2018-09-27T02:26:06.564Z,7.04
2018-09-27T02:28:36.264Z,7.07
2018-09-27T02:31:05.702Z,7.04
2018-09-27T02:33:35.110Z,7.13
2018-09-27T02:36:04.641Z,6.90
2018-09-27T02:38:34.299Z,6.97
2018-09-27T02:41:03.695Z,6.94
2018-09-27T02:43:33.090Z,6.89
2018-09-27T02:46:02.519Z,6.91
2018-09-27T02:48:32.092Z,6.97
2018-09-27T02:51:01.489Z,6.81
2018-09-27T02:53:30.958Z,6.82
2018-09-27T02:56:00.355Z,6.76
2018-09-27T02:58:29.791Z,6.63
2018-09-27T03:00:59.207Z,6.62
2018-09-27T03:03:28.600Z,6.61
2018-09-27T03:05:57.995Z,6.72
2018-09-27T03:08:27.423Z,6.77
2018-09-27T03:10:56.843Z,6.71
2018-09-27T03:13:26.239Z,6.74
2018-09-27T03:15:55.651Z,6.69
2018-09-27T03:18:25.060Z,6.71
2018-09-27T03:20:54.490Z,6.67
2018-09-27T03:23:23.904Z,6.56
2018-09-27T03:25:53.334Z,6.53
2018-09-27T03:28:22.730Z,6.30
2018-09-27T03:30:52.223Z,6.49
2018-09-27T03:33:21.947Z,6.54
2018-09-27T03:35:51.568Z,6.56
2018-09-27T03:38:20.963Z,6.61
2018-09-27T03:40:50.472Z,6.63
2018-09-27T03:43:19.953Z,6.53
2018-09-27T03:45:49.385Z,6.42
2018-09-27T03:48:18.784Z,6.47
2018-09-27T03:50:48.441Z,6.49
2018-09-27T03:53:17.981Z,6.42
2018-09-27T03:55:47.619Z,6.44
2018-09-27T03:58:17.251Z,6.42
2018-09-27T04:00:47.011Z,6.34
2018-09-27T04:03:16.675Z,6.40
2018-09-27T04:05:46.361Z,6.25
2018-09-27T04:08:15.984Z,6.29
2018-09-27T04:10:45.664Z,6.34
2018-09-27T04:13:15.236Z,6.38
2018-09-27T04:15:44.961Z,6.39
2018-09-27T04:18:14.627Z,6.36
2018-09-27T04:20:51.575Z,6.38
2018-09-27T04:23:23.344Z,6.25
2018-09-27T04:25:53.025Z,6.26
2018-09-27T04:28:23.035Z,6.19
2018-09-27T04:30:52.456Z,6.22
2018-09-27T04:33:21.860Z,6.26
2018-09-27T04:35:51.273Z,6.22
2018-09-27T04:38:20.765Z,6.22
2018-09-27T04:40:50.194Z,6.22
2018-09-27T04:43:19.689Z,6.14
2018-09-27T04:45:49.142Z,5.94
2018-09-27T04:48:18.639Z,6.05
2018-09-27T04:50:48.039Z,5.97
2018-09-27T04:53:17.516Z,6.12
2018-09-27T04:55:47.124Z,6.12
2018-09-27T04:58:16.592Z,6.15
2018-09-27T05:00:46.113Z,6.10
2018-09-27T05:03:15.787Z,6.22
2018-09-27T05:05:45.275Z,6.12
2018-09-27T05:08:14.720Z,6.07
2018-09-27T05:10:44.244Z,6.18
2018-09-27T05:13:13.740Z,6.17
2018-09-27T05:15:43.372Z,6.11
2018-09-27T05:18:12.802Z,5.92
2018-09-27T05:20:42.198Z,5.94
2018-09-27T05:23:11.675Z,5.97
2018-09-27T05:25:41.071Z,5.98
2018-09-27T05:28:10.608Z,6.04
2018-09-27T05:30:40.032Z,6.06
2018-09-27T05:33:09.439Z,6.00
2018-09-27T05:35:38.831Z,6.09
2018-09-27T05:38:08.251Z,6.12
2018-09-27T05:40:37.643Z,6.19
2018-09-27T05:43:07.407Z,6.15
2018-09-27T05:45:37.073Z,6.35
2018-09-27T05:48:06.479Z,6.40
2018-09-27T05:50:35.873Z,6.46
2018-09-27T05:53:05.400Z,6.55
2018-09-27T05:55:34.812Z,6.51
2018-09-27T05:58:04.232Z,6.58
2018-09-27T06:00:33.644Z,6.61
2018-09-27T06:03:03.073Z,6.76
2018-09-27T06:05:32.480Z,6.83
2018-09-27T06:08:01.868Z,6.92
2018-09-27T06:10:31.259Z,7.05
2018-09-27T06:13:00.698Z,7.13
2018-09-27T06:15:30.129Z,7.15
2018-09-27T06:17:59.500Z,7.24
2018-09-27T06:20:28.904Z,7.34
2018-09-27T06:22:58.327Z,7.39
2018-09-27T06:25:27.949Z,7.45
2018-09-27T06:27:57.369Z,7.52
2018-09-27T06:30:26.859Z,7.65
2018-09-27T06:32:56.284Z,7.72
2018-09-27T06:35:25.712Z,7.83
2018-09-27T06:37:55.116Z,7.95
2018-09-27T06:40:24.791Z,8.03
2018-09-27T06:42:54.181Z,8.11
2018-09-27T06:45:23.596Z,8.17
2018-09-27T06:47:53.204Z,8.25
2018-09-27T06:50:22.613Z,8.39
2018-09-27T06:52:52.005Z,8.51
2018-09-27T06:55:21.655Z,8.58
2018-09-27T06:57:50.815Z,8.73
2018-09-27T07:00:20.220Z,8.85
2018-09-27T07:02:49.636Z,8.81
2018-09-27T07:05:19.027Z,8.94
2018-09-27T07:07:48.448Z,9.13
2018-09-27T07:10:18.716Z,9.29
2018-09-27T07:12:48.153Z,9.41
2018-09-27T07:15:17.504Z,9.45
2018-09-27T07:17:46.920Z,9.41
2018-09-27T07:20:16.358Z,9.58
2018-09-27T07:22:45.747Z,9.72
2018-09-27T07:25:15.208Z,9.80
2018-09-27T07:27:44.616Z,9.93
2018-09-27T07:30:14.068Z,9.97
2018-09-27T07:32:43.710Z,10.02
2018-09-27T07:35:13.104Z,10.09
2018-09-27T07:37:42.505Z,10.21
2018-09-27T07:40:11.951Z,10.33
2018-09-27T07:42:41.377Z,10.51
2018-09-27T07:45:10.809Z,10.60
2018-09-27T07:47:40.207Z,10.74
2018-09-27T07:50:09.656Z,10.88
2018-09-27T07:52:39.791Z,11.03
2018-09-27T07:55:09.225Z,11.12
2018-09-27T07:57:39.977Z,11.20
2018-09-27T08:02:38.026Z,11.31
2018-09-27T08:05:07.419Z,11.52
2018-09-27T08:07:36.852Z,11.71
2018-09-27T08:10:06.264Z,11.60
2018-09-27T08:12:35.691Z,11.89
2018-09-27T08:15:05.170Z,12.13
2018-09-27T08:17:34.649Z,12.21
2018-09-27T08:20:04.406Z,12.29
2018-09-27T08:22:33.863Z,12.38
2018-09-27T08:25:03.314Z,12.49
2018-09-27T08:27:32.844Z,12.68
2018-09-27T08:30:02.261Z,12.76
2018-09-27T08:32:31.681Z,12.94
2018-09-27T08:35:01.144Z,13.09
2018-09-27T08:37:30.585Z,13.20
2018-09-27T08:39:59.988Z,13.05
2018-09-27T08:42:29.419Z,13.22
2018-09-27T08:44:59.025Z,13.31
2018-09-27T08:47:28.236Z,13.61
2018-09-27T08:49:57.657Z,13.85
2018-09-27T08:52:27.063Z,13.75
2018-09-27T08:54:56.535Z,13.77
2018-09-27T08:57:26.047Z,14.01
2018-09-27T08:59:55.396Z,14.28
2018-09-27T09:02:24.811Z,14.28
2018-09-27T09:04:54.228Z,14.46
2018-09-27T09:07:23.647Z,14.57
2018-09-27T09:09:53.045Z,14.79
2018-09-27T09:12:22.455Z,15.08
2018-09-27T09:14:51.852Z,15.23
2018-09-27T09:17:21.291Z,15.35
2018-09-27T09:19:50.693Z,15.19
2018-09-27T09:22:20.128Z,15.56
2018-09-27T09:24:49.539Z,15.55
2018-09-27T09:27:18.927Z,15.69
2018-09-27T09:29:48.390Z,15.94
2018-09-27T09:32:17.791Z,16.12
2018-09-27T09:34:47.252Z,16.29
2018-09-27T09:37:16.699Z,16.43
2018-09-27T09:39:46.149Z,16.44
2018-09-27T09:42:15.560Z,16.69
2018-09-27T09:44:44.991Z,16.88
2018-09-27T09:47:14.436Z,17.09
2018-09-27T09:49:43.887Z,17.29
2018-09-27T09:52:13.328Z,17.31
2018-09-27T09:54:42.728Z,17.51
2018-09-27T09:57:12.171Z,17.58
2018-09-27T09:59:41.781Z,17.63
2018-09-27T10:02:11.450Z,17.48
2018-09-27T10:04:41.155Z,17.73
2018-09-27T10:07:10.802Z,17.95
2018-09-27T10:09:40.376Z,17.95
2018-09-27T10:12:10.074Z,18.04
2018-09-27T10:14:39.792Z,17.87
2018-09-27T10:17:09.476Z,17.97
2018-09-27T10:19:39.122Z,18.20
2018-09-27T10:22:08.968Z,18.34
2018-09-27T10:24:38.523Z,18.50
2018-09-27T10:27:08.187Z,18.39
2018-09-27T10:29:37.786Z,18.40
2018-09-27T10:32:07.353Z,18.35
2018-09-27T10:34:37.015Z,18.70
2018-09-27T10:37:06.643Z,18.73
2018-09-27T10:39:36.224Z,18.63
2018-09-27T10:42:05.900Z,18.96
2018-09-27T10:44:35.570Z,19.05
2018-09-27T10:47:05.502Z,18.94
2018-09-27T10:49:35.260Z,18.93
2018-09-27T10:52:04.866Z,18.95
2018-09-27T10:54:34.556Z,19.12
2018-09-27T10:57:04.315Z,19.13
2018-09-27T10:59:33.837Z,19.34
2018-09-27T11:02:03.235Z,19.62
2018-09-27T11:04:32.651Z,19.84
2018-09-27T11:07:02.064Z,20.01
2018-09-27T11:09:31.485Z,20.37
2018-09-27T11:12:00.908Z,20.42
2018-09-27T11:14:30.311Z,20.55
2018-09-27T11:16:59.776Z,20.66
2018-09-27T11:19:29.206Z,20.84
2018-09-27T11:21:58.660Z,20.42
2018-09-27T11:24:28.100Z,21.01
2018-09-27T11:26:57.503Z,20.88
2018-09-27T11:29:32.127Z,20.97
2018-09-27T11:32:06.732Z,20.87
2018-09-27T11:34:36.144Z,21.04
2018-09-27T11:37:05.581Z,21.24
2018-09-27T11:39:34.989Z,20.64
2018-09-27T11:42:04.407Z,21.35
2018-09-27T11:44:33.833Z,21.26
2018-09-27T11:47:03.260Z,21.50
2018-09-27T11:49:32.757Z,21.88
2018-09-27T11:52:02.084Z,22.19
2018-09-27T11:54:31.503Z,21.99
2018-09-27T11:57:00.900Z,22.31
2018-09-27T11:59:30.345Z,22.67
2018-09-27T12:01:59.745Z,22.84
2018-09-27T12:04:29.198Z,22.72
2018-09-27T12:06:58.588Z,22.87
2018-09-27T12:09:28.000Z,23.36
2018-09-27T12:11:58.052Z,23.53
2018-09-27T12:14:27.435Z,23.59
2018-09-27T12:16:56.896Z,23.87
2018-09-27T12:19:26.673Z,24.27
2018-09-27T12:21:56.064Z,24.47
2018-09-27T12:24:25.556Z,24.51
2018-09-27T12:26:55.000Z,24.69
2018-09-27T12:29:24.431Z,25.11
2018-09-27T12:31:53.824Z,25.47
2018-09-27T12:34:23.272Z,25.96
2018-09-27T12:36:52.690Z,26.36
2018-09-27T12:39:22.146Z,26.39
2018-09-27T12:41:51.592Z,26.56
2018-09-27T12:44:20.965Z,26.74
2018-09-27T12:46:50.445Z,26.72
2018-09-27T12:49:19.832Z,26.59
2018-09-27T12:51:49.426Z,26.04
2018-09-27T12:54:18.780Z,26.49
2018-09-27T12:56:48.192Z,27.03
2018-09-27T12:59:17.619Z,27.01
2018-09-27T13:01:47.365Z,27.39
2018-09-27T13:04:16.941Z,27.35
2018-09-27T13:06:46.367Z,27.06
2018-09-27T13:09:15.902Z,27.53
2018-09-27T13:11:45.291Z,28.25
2018-09-27T13:14:14.761Z,28.52
2018-09-27T13:16:44.291Z,28.55
2018-09-27T13:19:13.761Z,28.73
2018-09-27T13:21:43.210Z,28.88
2018-09-27T13:24:12.557Z,28.89
2018-09-27T13:26:42.075Z,29.26
2018-09-27T13:29:11.460Z,29.31
2018-09-27T13:31:40.904Z,29.15
2018-09-27T13:34:10.392Z,29.68
2018-09-27T13:36:39.731Z,30.27
2018-09-27T13:39:10.570Z,30.82
2018-09-27T13:41:40.611Z,30.84
2018-09-27T13:44:10.121Z,30.93
2018-09-27T13:46:39.556Z,31.72
2018-09-27T13:49:09.120Z,32.04
2018-09-27T13:51:38.471Z,31.88
2018-09-27T13:54:07.887Z,31.04
2018-09-27T13:56:37.301Z,31.48
2018-09-27T13:59:07.530Z,31.60
2018-09-27T14:01:36.971Z,31.71
2018-09-27T14:04:06.623Z,31.74
2018-09-27T14:06:36.056Z,30.42
2018-09-27T14:09:07.441Z,31.05
2018-09-27T14:11:36.859Z,31.55
2018-09-27T14:14:06.534Z,31.96
2018-09-27T14:16:35.962Z,32.42
2018-09-27T14:19:05.454Z,33.70
2018-09-27T14:21:34.869Z,34.51
2018-09-27T14:24:04.338Z,35.51
2018-09-27T14:26:33.735Z,35.64
2018-09-27T14:29:03.161Z,35.06
2018-09-27T14:31:32.681Z,34.95
2018-09-27T14:34:02.136Z,35.04
2018-09-27T14:36:31.576Z,34.56
2018-09-27T14:39:01.034Z,34.07
2018-09-27T14:41:30.498Z,33.39
2018-09-27T14:43:59.898Z,33.08
2018-09-27T14:46:29.324Z,32.79
2018-09-27T14:48:58.743Z,32.39
2018-09-27T14:51:28.392Z,31.55
2018-09-27T14:53:57.827Z,31.70
2018-09-27T14:56:27.283Z,32.21
2018-09-27T14:58:56.735Z,31.60
2018-09-27T15:01:26.163Z,31.79
2018-09-27T15:03:55.576Z,31.91
2018-09-27T15:06:24.989Z,31.57
2018-09-27T15:08:54.380Z,30.82
2018-09-27T15:11:23.823Z,31.03
2018-09-27T15:13:53.245Z,30.54
2018-09-27T15:16:22.694Z,30.41
2018-09-27T15:18:52.078Z,31.20
2018-09-27T15:21:21.478Z,32.17
2018-09-27T15:23:50.907Z,31.84
2018-09-27T15:26:20.309Z,32.26
2018-09-27T15:28:49.724Z,32.87
2018-09-27T15:31:19.116Z,33.10
2018-09-27T15:33:48.533Z,33.32
2018-09-27T15:36:17.970Z,33.38
2018-09-27T15:38:47.360Z,33.08
2018-09-27T15:41:16.785Z,33.51
2018-09-27T15:43:46.229Z,33.31
2018-09-27T15:46:15.651Z,33.22
2018-09-27T15:48:45.076Z,33.29
2018-09-27T15:51:14.486Z,33.63
2018-09-27T15:53:43.956Z,33.87
2018-09-27T15:56:13.401Z,33.68
2018-09-27T15:58:42.861Z,33.03
2018-09-27T16:01:12.252Z,33.01
2018-09-27T16:03:41.712Z,33.35
2018-09-27T16:06:11.104Z,33.72
2018-09-27T16:08:40.549Z,33.35
2018-09-27T16:11:09.973Z,32.52
2018-09-27T16:13:39.385Z,32.49
2018-09-27T16:16:08.853Z,32.54
2018-09-27T16:18:38.259Z,31.86
2018-09-27T16:21:07.696Z,31.24
2018-09-27T16:23:37.195Z,30.57
2018-09-27T16:26:06.599Z,29.48
2018-09-27T16:28:36.077Z,28.50
2018-09-27T16:31:05.510Z,27.86
2018-09-27T16:33:34.983Z,27.02
2018-09-27T16:36:04.348Z,26.21
2018-09-27T16:38:33.755Z,25.57
2018-09-27T16:41:03.168Z,24.92
2018-09-27T16:43:32.715Z,24.53
2018-09-27T16:46:02.112Z,24.08
2018-09-27T16:48:31.547Z,23.65
2018-09-27T16:51:00.964Z,23.11
2018-09-27T16:53:30.622Z,22.85
2018-09-27T16:55:59.952Z,22.62
2018-09-27T16:58:29.376Z,22.14
2018-09-27T17:00:58.795Z,21.94
2018-09-27T17:03:28.233Z,21.78
2018-09-27T17:05:57.698Z,21.57
2018-09-27T17:08:27.095Z,21.30
2018-09-27T17:10:56.569Z,20.88
2018-09-27T17:13:26.005Z,20.80
2018-09-27T17:15:55.473Z,20.69
2018-09-27T17:18:24.899Z,20.34
2018-09-27T17:20:54.326Z,20.21
2018-09-27T17:23:23.808Z,20.14
2018-09-27T17:25:53.317Z,19.95
2018-09-27T17:28:22.736Z,19.68
2018-09-27T17:30:52.191Z,19.53
2018-09-27T17:33:21.650Z,19.35
2018-09-27T17:35:51.148Z,19.07
2018-09-27T17:38:20.600Z,18.86
2018-09-27T17:40:53.089Z,18.64
2018-09-27T17:43:22.623Z,18.33
2018-09-27T17:45:52.117Z,17.91
2018-09-27T17:48:22.270Z,17.46
2018-09-27T17:50:52.015Z,17.34
2018-09-27T17:53:22.165Z,16.96
2018-09-27T17:55:52.045Z,16.53
2018-09-27T17:58:22.089Z,16.48
2018-09-27T18:00:52.600Z,16.24
2018-09-27T18:03:22.450Z,16.15
2018-09-27T18:05:52.949Z,15.69
2018-09-27T18:08:23.795Z,15.83
2018-09-27T18:10:54.577Z,15.57
2018-09-27T18:13:25.656Z,15.64
2018-09-27T18:15:57.916Z,15.67
2018-09-27T18:18:29.992Z,15.58
2018-09-27T18:21:01.777Z,15.34
2018-09-27T18:23:34.002Z,15.39
2018-09-27T18:26:06.775Z,15.45
2018-09-27T18:28:39.322Z,15.40
2018-09-27T18:31:11.299Z,15.30
2018-09-27T18:33:43.137Z,15.27
2018-09-27T18:36:15.948Z,15.22
2018-09-27T18:38:49.188Z,15.09
2018-09-27T18:41:22.631Z,14.90
2018-09-27T18:43:55.731Z,14.80
2018-09-27T18:46:28.024Z,14.77
2018-09-27T18:49:01.007Z,14.69
2018-09-27T18:51:34.020Z,14.59
2018-09-27T18:54:07.181Z,14.54
2018-09-27T18:56:40.099Z,14.42
2018-09-27T18:59:13.187Z,14.19
2018-09-27T19:01:46.224Z,13.97
2018-09-27T19:04:19.252Z,13.83
2018-09-27T19:06:52.139Z,13.79
2018-09-27T19:09:25.792Z,13.66
2018-09-27T19:11:58.991Z,13.64
2018-09-27T19:14:32.324Z,13.60
2018-09-27T19:17:05.585Z,13.51
2018-09-27T19:19:38.646Z,13.45
2018-09-27T19:22:11.732Z,13.43
2018-09-27T19:24:44.813Z,13.36
2018-09-27T19:27:17.998Z,13.28
2018-09-27T19:29:51.154Z,13.20
2018-09-27T19:32:24.555Z,13.15
2018-09-27T19:34:57.666Z,13.02
2018-09-27T19:37:30.752Z,12.89
2018-09-27T19:40:04.095Z,12.78
2018-09-27T19:42:36.976Z,12.73
2018-09-27T19:45:10.154Z,12.66
2018-09-27T19:47:43.963Z,12.61
2018-09-27T19:50:16.904Z,12.58
2018-09-27T19:52:51.213Z,12.51
2018-09-27T19:55:25.001Z,12.44
2018-09-27T19:57:57.888Z,12.37
2018-09-27T20:00:30.941Z,12.28
2018-09-27T20:03:03.914Z,12.24
2018-09-27T20:05:36.956Z,12.18
2018-09-27T20:08:09.730Z,12.15
2018-09-27T20:10:42.657Z,12.07
2018-09-27T20:13:15.548Z,11.90
2018-09-27T20:15:48.202Z,11.80
2018-09-27T20:18:21.424Z,11.72
2018-09-27T20:20:54.536Z,11.78
2018-09-27T20:23:27.699Z,11.75
2018-09-27T20:26:00.630Z,11.74
2018-09-27T20:28:32.622Z,11.68
2018-09-27T20:31:03.965Z,11.57
2018-09-27T20:33:36.323Z,11.47
2018-09-27T20:36:08.014Z,11.43
2018-09-27T20:38:37.921Z,11.36
2018-09-27T20:41:07.607Z,11.32
2018-09-27T20:43:37.240Z,11.31
2018-09-27T20:46:06.700Z,11.29
2018-09-27T20:48:36.189Z,11.23
2018-09-27T20:51:05.623Z,11.24
2018-09-27T20:53:35.225Z,11.04
2018-09-27T20:56:04.677Z,10.98
2018-09-27T20:58:34.089Z,10.93
2018-09-27T21:01:03.499Z,10.89
2018-09-27T21:03:32.900Z,10.81
2018-09-27T21:06:02.309Z,10.70
2018-09-27T21:08:31.702Z,10.71
2018-09-27T21:11:01.116Z,10.67
2018-09-27T21:13:30.614Z,10.60
2018-09-27T21:16:00.044Z,10.39
2018-09-27T21:18:29.662Z,10.40
2018-09-27T21:20:59.292Z,10.41
2018-09-27T21:23:28.752Z,10.31
2018-09-27T21:25:58.162Z,10.35
2018-09-27T21:28:27.687Z,10.24
2018-09-27T21:30:57.371Z,10.22
2018-09-27T21:33:27.539Z,10.19
2018-09-27T21:35:56.956Z,10.11
2018-09-27T21:38:26.395Z,10.09
2018-09-27T21:40:55.784Z,10.14
2018-09-27T21:43:25.279Z,10.06
2018-09-27T21:45:54.648Z,10.10
2018-09-27T21:48:24.239Z,10.04
2018-09-27T21:50:53.635Z,10.05
2018-09-27T21:53:23.104Z,10.04
2018-09-27T21:55:52.504Z,10.03
2018-09-27T21:58:21.911Z,9.98
2018-09-27T22:00:52.484Z,9.89
2018-09-27T22:03:23.390Z,9.82
2018-09-27T22:05:53.016Z,9.76
2018-09-27T22:08:22.529Z,9.74
2018-09-27T22:10:51.923Z,9.57
2018-09-27T22:13:21.335Z,9.60
2018-09-27T22:15:50.799Z,9.65
2018-09-27T22:18:20.212Z,9.65
2018-09-27T22:20:49.665Z,9.61
2018-09-27T22:23:19.089Z,9.48
2018-09-27T22:25:48.647Z,9.48
2018-09-27T22:28:18.047Z,9.34
2018-09-27T22:30:47.435Z,9.38
2018-09-27T22:33:16.908Z,9.31
2018-09-27T22:35:46.308Z,9.19
2018-09-27T22:38:15.761Z,8.90
2018-09-27T22:40:45.156Z,8.98
2018-09-27T22:43:14.567Z,9.06
2018-09-27T22:45:43.956Z,9.09
2018-09-27T22:48:13.344Z,9.12
2018-09-27T22:50:42.761Z,9.04
2018-09-27T22:53:12.200Z,9.03
2018-09-27T22:55:41.586Z,8.87
2018-09-27T22:58:11.087Z,8.82
2018-09-27T23:00:40.579Z,8.72
2018-09-27T23:03:09.983Z,8.93
2018-09-27T23:05:39.387Z,8.91
2018-09-27T23:08:08.882Z,8.85
2018-09-27T23:10:38.270Z,8.78
2018-09-27T23:13:07.668Z,8.75
2018-09-27T23:15:37.111Z,8.79
2018-09-27T23:18:06.605Z,8.64
2018-09-27T23:20:35.985Z,8.73
2018-09-27T23:23:05.379Z,8.57
2018-09-27T23:25:34.776Z,8.48
2018-09-27T23:28:04.250Z,8.42
2018-09-27T23:30:33.659Z,8.33
2018-09-27T23:33:03.051Z,8.30
2018-09-27T23:35:32.427Z,8.49
2018-09-27T23:38:01.908Z,8.43
2018-09-27T23:40:31.307Z,8.44
2018-09-27T23:43:00.776Z,8.37
2018-09-27T23:45:30.352Z,8.08
2018-09-27T23:47:59.740Z,8.45
2018-09-27T23:50:29.122Z,8.39
2018-09-27T23:52:58.530Z,8.34
2018-09-27T23:55:27.927Z,8.37
2018-09-27T23:57:57.375Z,8.35
